createdAt,value
2022-11-07T00:00:31.376Z,1.20
2022-11-07T00:02:59.819Z,0.93
2022-11-07T00:05:29.561Z,1.00
2022-11-07T00:07:57.900Z,1.07
2022-11-07T00:10:26.214Z,1.23
2022-11-07T00:12:54.948Z,1.20
2022-11-07T00:15:23.493Z,1.07
2022-11-07T00:17:51.848Z,1.27
2022-11-07T00:20:20.185Z,0.97
2022-11-07T00:22:50.032Z,0.90
2022-11-07T00:25:18.516Z,0.90
2022-11-07T00:27:46.932Z,0.80
2022-11-07T00:30:15.305Z,1.00
2022-11-07T00:32:43.648Z,0.90
2022-11-07T00:35:11.934Z,0.93
2022-11-07T00:37:40.311Z,0.80
2022-11-07T00:40:11.604Z,0.70
2022-11-07T00:42:40.416Z,0.80
2022-11-07T00:45:10.022Z,1.30
2022-11-07T00:47:38.524Z,0.80
2022-11-07T00:50:07.830Z,1.30
2022-11-07T00:52:36.541Z,1.07
2022-11-07T00:55:05.711Z,1.20
2022-11-07T00:57:35.405Z,1.03
2022-11-07T01:00:03.782Z,1.10
2022-11-07T01:02:32.380Z,0.73
2022-11-07T01:05:11.881Z,1.03
2022-11-07T01:07:40.823Z,1.03
2022-11-07T01:10:09.476Z,1.10
2022-11-07T01:12:39.421Z,0.90
2022-11-07T01:15:08.568Z,1.20
2022-11-07T01:17:36.882Z,0.77
2022-11-07T01:20:06.240Z,1.03
2022-11-07T01:22:34.637Z,0.90
2022-11-07T01:25:02.986Z,0.70
2022-11-07T01:27:34.761Z,0.80
2022-11-07T01:30:04.972Z,0.60
2022-11-07T01:32:33.317Z,1.00
2022-11-07T01:35:01.716Z,0.70
2022-11-07T01:37:30.132Z,0.80
2022-11-07T01:39:58.541Z,0.60
2022-11-07T01:42:27.512Z,0.77
2022-11-07T01:44:58.065Z,0.80
2022-11-07T01:47:32.484Z,0.80
2022-11-07T01:50:02.133Z,0.80
2022-11-07T01:52:33.986Z,0.73
2022-11-07T01:55:08.868Z,0.70
2022-11-07T01:57:42.025Z,0.77
2022-11-07T02:00:13.554Z,0.93
2022-11-07T02:02:46.105Z,0.63
2022-11-07T02:05:18.630Z,0.77
2022-11-07T02:07:47.748Z,0.80
2022-11-07T02:10:17.318Z,0.70
2022-11-07T02:12:45.755Z,0.80
2022-11-07T02:15:14.133Z,1.20
2022-11-07T02:17:43.889Z,0.90
2022-11-07T02:20:13.288Z,0.77
2022-11-07T02:22:46.725Z,1.00
2022-11-07T02:25:18.464Z,0.70
2022-11-07T02:27:49.029Z,1.10
2022-11-07T02:30:20.585Z,0.80
2022-11-07T02:32:49.039Z,0.97
2022-11-07T02:35:37.725Z,1.13
2022-11-07T02:38:10.197Z,0.80
2022-11-07T02:40:40.365Z,0.87
2022-11-07T02:43:12.001Z,0.90
2022-11-07T02:45:43.466Z,0.77
2022-11-07T02:48:11.893Z,1.23
2022-11-07T02:50:41.188Z,1.10
2022-11-07T02:53:09.825Z,1.07
2022-11-07T02:55:39.954Z,1.20
2022-11-07T02:58:08.556Z,1.10
2022-11-07T03:00:37.033Z,0.87
2022-11-07T03:03:05.422Z,1.10
2022-11-07T03:05:33.788Z,1.10
2022-11-07T03:08:06.741Z,1.30
2022-11-07T03:10:35.274Z,1.20
2022-11-07T03:13:05.179Z,1.40
2022-11-07T03:15:33.517Z,0.83
2022-11-07T03:18:01.862Z,1.23
2022-11-07T03:20:30.381Z,1.27
2022-11-07T03:22:58.732Z,1.40
2022-11-07T03:25:27.135Z,0.97
2022-11-07T03:27:55.555Z,1.20
2022-11-07T03:30:25.489Z,1.23
2022-11-07T03:32:54.052Z,1.03
2022-11-07T03:35:23.257Z,1.13
2022-11-07T03:37:51.691Z,1.37
2022-11-07T03:40:20.116Z,1.17
2022-11-07T03:42:48.668Z,0.90
2022-11-07T03:45:17.880Z,1.23
2022-11-07T03:47:48.861Z,1.10
2022-11-07T03:50:19.680Z,1.00
2022-11-07T03:52:48.692Z,0.90
2022-11-07T03:55:18.365Z,1.13
2022-11-07T03:57:47.626Z,1.20
2022-11-07T04:00:17.673Z,1.00
2022-11-07T04:02:47.632Z,1.17
2022-11-07T04:05:16.223Z,1.30
2022-11-07T04:07:44.523Z,0.73
2022-11-07T04:10:13.392Z,1.00
2022-11-07T04:12:59.272Z,1.10
2022-11-07T04:15:45.408Z,1.30
2022-11-07T04:18:15.146Z,0.90
2022-11-07T04:20:43.481Z,1.30
2022-11-07T04:23:12.268Z,1.20
2022-11-07T04:25:58.150Z,1.20
2022-11-07T04:28:26.555Z,0.83
2022-11-07T04:30:54.898Z,1.00
2022-11-07T04:33:24.660Z,1.10
2022-11-07T04:35:53.078Z,1.00
2022-11-07T04:38:21.489Z,1.10
2022-11-07T04:40:54.468Z,1.00
2022-11-07T04:43:23.333Z,0.90
2022-11-07T04:45:51.944Z,0.93
2022-11-07T04:48:20.924Z,1.10
2022-11-07T04:50:50.949Z,1.07
2022-11-07T04:53:19.899Z,1.23
2022-11-07T04:55:48.684Z,1.20
2022-11-07T04:58:17.164Z,1.10
2022-11-07T05:00:45.861Z,1.40
2022-11-07T05:03:14.599Z,1.07
2022-11-07T05:05:43.358Z,1.30
2022-11-07T05:08:13.053Z,1.30
2022-11-07T05:10:41.884Z,1.50
2022-11-07T05:13:10.288Z,1.10
2022-11-07T05:15:38.988Z,1.07
2022-11-07T05:18:07.637Z,1.00
2022-11-07T05:20:38.068Z,1.00
2022-11-07T05:23:17.758Z,1.03
2022-11-07T05:25:49.563Z,0.87
2022-11-07T05:28:25.790Z,1.00
2022-11-07T05:30:59.757Z,1.00
2022-11-07T05:33:28.791Z,1.00
2022-11-07T05:35:57.228Z,1.10
2022-11-07T05:38:25.580Z,1.00
2022-11-07T05:40:55.305Z,0.90
2022-11-07T05:43:24.624Z,0.90
2022-11-07T05:45:53.027Z,1.00
2022-11-07T05:48:21.359Z,0.97
2022-11-07T05:50:49.744Z,1.33
2022-11-07T05:53:20.954Z,1.10
2022-11-07T05:55:49.700Z,1.20
2022-11-07T05:58:20.068Z,1.10
2022-11-07T06:00:49.032Z,1.10
2022-11-07T06:03:18.466Z,1.30
2022-11-07T06:05:47.420Z,1.30
2022-11-07T06:08:15.977Z,1.13
2022-11-07T06:10:44.863Z,1.20
2022-11-07T06:13:15.490Z,1.33
2022-11-07T06:15:46.664Z,1.07
2022-11-07T06:18:17.492Z,1.30
2022-11-07T06:20:46.001Z,1.20
2022-11-07T06:23:14.811Z,1.20
2022-11-07T06:25:43.564Z,0.90
2022-11-07T06:28:13.660Z,1.30
2022-11-07T06:30:42.456Z,1.00
2022-11-07T06:33:15.878Z,1.30
2022-11-07T06:35:45.524Z,0.93
2022-11-07T06:38:15.596Z,1.00
2022-11-07T06:40:44.432Z,1.20
2022-11-07T06:43:14.881Z,0.90
2022-11-07T06:45:44.332Z,1.20
2022-11-07T06:48:14.621Z,0.80
2022-11-07T06:50:43.044Z,1.00
2022-11-07T06:53:14.271Z,1.27
2022-11-07T06:55:43.096Z,1.20
2022-11-07T06:58:11.645Z,1.40
2022-11-07T07:00:40.063Z,1.20
2022-11-07T07:03:08.538Z,1.37
2022-11-07T07:05:38.661Z,1.40
2022-11-07T07:08:08.709Z,1.63
2022-11-07T07:10:39.490Z,1.70
2022-11-07T07:13:07.888Z,1.53
2022-11-07T07:15:49.908Z,1.13
2022-11-07T07:18:19.144Z,1.10
2022-11-07T07:20:49.409Z,0.90
2022-11-07T07:23:18.283Z,1.07
2022-11-07T07:25:46.941Z,1.47
2022-11-07T07:28:15.295Z,1.00
2022-11-07T07:30:48.655Z,1.50
2022-11-07T07:33:46.212Z,1.37
2022-11-07T07:36:20.690Z,1.20
2022-11-07T07:38:49.483Z,1.70
2022-11-07T07:41:18.444Z,1.23
2022-11-07T07:43:46.989Z,1.00
2022-11-07T07:46:19.232Z,1.47
2022-11-07T07:48:48.018Z,1.33
2022-11-07T07:51:17.730Z,1.10
2022-11-07T07:53:46.069Z,1.10
2022-11-07T07:56:15.085Z,0.97
2022-11-07T07:58:43.410Z,1.03
2022-11-07T08:01:11.793Z,1.10
2022-11-07T08:04:00.132Z,1.10
2022-11-07T08:06:29.875Z,0.97
2022-11-07T08:08:58.170Z,1.30
2022-11-07T08:11:26.561Z,1.03
2022-11-07T08:14:00.828Z,0.90
2022-11-07T08:16:29.812Z,1.20
2022-11-07T08:18:58.170Z,0.90
2022-11-07T08:21:26.441Z,1.07
2022-11-07T08:23:56.657Z,1.03
2022-11-07T08:26:26.129Z,1.00
2022-11-07T08:28:55.225Z,1.03
2022-11-07T08:31:23.690Z,1.13
2022-11-07T08:33:52.060Z,0.97
2022-11-07T08:36:20.564Z,0.90
2022-11-07T08:38:48.896Z,0.83
2022-11-07T08:41:22.210Z,1.20
2022-11-07T08:43:51.124Z,1.40
2022-11-07T08:46:19.514Z,1.20
2022-11-07T08:48:47.888Z,1.30
2022-11-07T08:51:16.278Z,0.80
2022-11-07T08:53:44.662Z,0.90
2022-11-07T08:56:13.014Z,1.00
2022-11-07T08:58:42.718Z,1.33
2022-11-07T09:01:11.669Z,0.90
2022-11-07T09:03:47.516Z,0.67
2022-11-07T09:06:19.374Z,0.90
2022-11-07T09:08:47.714Z,0.93
2022-11-07T09:11:19.064Z,0.83
2022-11-07T09:13:49.351Z,0.87
2022-11-07T09:16:18.267Z,0.80
2022-11-07T09:18:47.852Z,1.00
2022-11-07T09:21:22.047Z,1.00
2022-11-07T09:23:52.080Z,1.30
2022-11-07T09:26:20.476Z,1.07
2022-11-07T09:28:53.115Z,1.10
2022-11-07T09:31:22.739Z,0.97
2022-11-07T09:33:51.148Z,1.33
2022-11-07T09:36:19.577Z,0.60
2022-11-07T09:38:47.917Z,1.03
2022-11-07T09:41:26.870Z,0.70
2022-11-07T09:44:10.983Z,0.90
2022-11-07T09:46:53.014Z,0.90
2022-11-07T09:49:27.244Z,0.80
2022-11-07T09:52:03.494Z,0.67
2022-11-07T09:54:38.349Z,1.07
2022-11-07T09:57:09.963Z,0.87
2022-11-07T09:59:46.922Z,0.70
2022-11-07T10:02:17.279Z,0.87
2022-11-07T10:04:46.109Z,1.00
2022-11-07T10:07:26.132Z,0.80
2022-11-07T10:10:02.201Z,0.70
2022-11-07T10:12:51.165Z,1.20
2022-11-07T10:15:26.140Z,0.60
2022-11-07T10:18:05.609Z,1.27
2022-11-07T10:20:46.907Z,0.70
2022-11-07T10:23:33.599Z,1.17
2022-11-07T10:26:09.051Z,1.13
2022-11-07T10:28:45.757Z,0.90
2022-11-07T10:31:17.101Z,1.00
2022-11-07T10:33:51.412Z,0.77
2022-11-07T10:36:24.833Z,1.00
2022-11-07T10:38:53.553Z,1.10
2022-11-07T10:41:23.417Z,1.10
2022-11-07T10:43:54.893Z,1.20
2022-11-07T10:46:29.858Z,1.00
2022-11-07T10:49:01.021Z,1.00
2022-11-07T10:51:36.972Z,1.20
2022-11-07T10:54:05.726Z,1.20
2022-11-07T10:56:45.528Z,1.30
2022-11-07T10:59:14.992Z,1.30
2022-11-07T11:01:51.922Z,1.00
2022-11-07T11:04:24.557Z,1.30
2022-11-07T11:07:01.324Z,1.00
2022-11-07T11:09:32.215Z,0.87
2022-11-07T11:12:05.704Z,1.43
2022-11-07T11:14:38.703Z,1.17
2022-11-07T11:17:25.418Z,1.10
2022-11-07T11:19:54.577Z,1.00
2022-11-07T11:22:25.726Z,1.10
2022-11-07T11:25:03.112Z,1.20
2022-11-07T11:27:36.902Z,1.00
2022-11-07T11:30:09.008Z,1.10
2022-11-07T11:32:51.582Z,1.23
2022-11-07T11:35:31.937Z,1.00
2022-11-07T11:38:05.584Z,1.17
2022-11-07T11:40:40.282Z,0.80
2022-11-07T11:43:20.549Z,1.10
2022-11-07T11:46:04.864Z,1.10
2022-11-07T11:48:41.057Z,0.80
2022-11-07T11:51:19.141Z,0.83
2022-11-07T11:53:47.567Z,0.83
2022-11-07T11:56:34.913Z,0.90
2022-11-07T11:59:20.529Z,0.80
2022-11-07T12:01:59.471Z,0.90
2022-11-07T12:04:40.831Z,1.20
2022-11-07T12:07:20.415Z,0.80
2022-11-07T12:09:54.220Z,1.17
2022-11-07T12:12:30.211Z,1.50
2022-11-07T12:15:20.285Z,0.93
2022-11-07T12:17:54.177Z,1.10
2022-11-07T12:20:28.950Z,0.90
2022-11-07T12:23:08.280Z,1.60
2022-11-07T12:25:41.682Z,0.97
2022-11-07T12:28:27.935Z,0.90
2022-11-07T12:31:05.284Z,1.30
2022-11-07T12:33:37.808Z,1.00
2022-11-07T12:36:14.646Z,1.30
2022-11-07T12:39:04.829Z,1.00
2022-11-07T12:41:41.029Z,1.30
2022-11-07T12:44:23.498Z,1.47
2022-11-07T12:46:55.163Z,1.03
2022-11-07T12:49:44.424Z,1.43
2022-11-07T12:52:27.153Z,1.10
2022-11-07T12:55:01.307Z,1.27
2022-11-07T12:57:33.239Z,1.23
2022-11-07T13:00:06.558Z,0.97
2022-11-07T13:02:51.027Z,0.87
2022-11-07T13:05:40.916Z,1.07
2022-11-07T13:08:16.916Z,1.20
2022-11-07T13:10:52.834Z,1.30
2022-11-07T13:13:26.730Z,0.87
2022-11-07T13:16:14.528Z,1.60
2022-11-07T13:18:43.471Z,1.40
2022-11-07T13:21:11.870Z,1.30
2022-11-07T13:23:41.700Z,1.00
2022-11-07T13:26:40.234Z,1.00
2022-11-07T13:29:00.165Z,1.10
2022-11-07T13:31:37.262Z,0.93
2022-11-07T13:34:26.454Z,1.10
2022-11-07T13:37:04.396Z,1.10
2022-11-07T13:39:34.808Z,1.30
2022-11-07T13:42:04.403Z,1.57
2022-11-07T13:44:37.490Z,2.50
2022-11-07T13:47:11.449Z,2.33
2022-11-07T13:49:44.966Z,1.40
2022-11-07T13:52:20.841Z,1.20
2022-11-07T13:54:57.258Z,1.33
2022-11-07T13:57:31.106Z,1.27
2022-11-07T14:00:05.018Z,1.50
2022-11-07T14:02:36.150Z,1.50
2022-11-07T14:05:22.556Z,1.30
2022-11-07T14:07:54.168Z,1.50
2022-11-07T14:10:30.721Z,1.47
2022-11-07T14:13:07.129Z,1.20
2022-11-07T14:15:36.836Z,1.47
2022-11-07T14:18:06.020Z,1.47
2022-11-07T14:20:34.372Z,1.13
2022-11-07T14:23:02.957Z,1.53
2022-11-07T14:25:35.442Z,1.30
2022-11-07T14:28:08.034Z,1.37
2022-11-07T14:30:42.233Z,1.40
2022-11-07T14:33:17.796Z,1.33
2022-11-07T14:35:48.913Z,1.30
2022-11-07T14:38:22.450Z,1.70
2022-11-07T14:40:54.063Z,1.67
2022-11-07T14:43:25.278Z,1.57
2022-11-07T14:46:17.640Z,1.47
2022-11-07T14:48:47.473Z,1.50
2022-11-07T14:51:19.747Z,1.50
2022-11-07T14:53:55.078Z,1.50
2022-11-07T14:56:29.636Z,2.07
2022-11-07T14:58:59.098Z,1.90
2022-11-07T15:01:30.942Z,1.77
2022-11-07T15:04:01.268Z,1.40
2022-11-07T15:06:34.439Z,1.53
2022-11-07T15:09:05.564Z,1.47
2022-11-07T15:11:36.902Z,1.50
2022-11-07T15:14:20.659Z,1.33
2022-11-07T15:16:51.458Z,1.77
2022-11-07T15:19:23.079Z,1.53
2022-11-07T15:21:56.898Z,1.47
2022-11-07T15:24:31.031Z,1.57
2022-11-07T15:27:02.619Z,1.40
2022-11-07T15:29:36.016Z,1.60
2022-11-07T15:32:13.709Z,1.63
2022-11-07T15:37:30.934Z,1.90
2022-11-07T15:39:59.316Z,1.93
2022-11-07T15:42:29.095Z,1.87
2022-11-07T15:44:57.468Z,1.87
2022-11-07T15:47:28.709Z,1.60
2022-11-07T15:49:57.130Z,1.70
2022-11-07T15:52:25.505Z,1.90
2022-11-07T15:54:54.062Z,2.00
2022-11-07T15:57:22.478Z,2.40
2022-11-07T15:59:52.565Z,2.97
2022-11-07T16:02:21.048Z,3.20
2022-11-07T16:04:49.465Z,3.13
2022-11-07T16:07:21.056Z,3.30
2022-11-07T16:09:49.517Z,5.60
2022-11-07T16:12:19.547Z,4.67
2022-11-07T16:14:47.893Z,4.90
2022-11-07T16:17:19.937Z,4.33
2022-11-07T16:19:48.374Z,6.13
2022-11-07T16:22:17.870Z,4.03
2022-11-07T16:24:46.248Z,4.93
2022-11-07T16:27:18.368Z,7.07
2022-11-07T16:29:47.192Z,4.37
2022-11-07T16:32:18.713Z,3.80
2022-11-07T16:34:48.073Z,6.20
2022-11-07T16:37:16.420Z,4.77
2022-11-07T16:39:44.819Z,3.57
2022-11-07T16:42:16.402Z,3.57
2022-11-07T16:44:44.930Z,3.80
2022-11-07T16:47:15.377Z,2.77
2022-11-07T16:49:45.166Z,3.00
2022-11-07T16:52:16.058Z,4.23
2022-11-07T16:54:44.769Z,4.00
2022-11-07T16:57:14.515Z,8.40
2022-11-07T16:59:43.746Z,4.53
2022-11-07T17:02:21.718Z,6.17
2022-11-07T17:04:53.310Z,3.43
2022-11-07T17:07:23.537Z,2.50
2022-11-07T17:09:52.097Z,3.90
2022-11-07T17:12:23.188Z,3.00
2022-11-07T17:14:51.645Z,7.20
2022-11-07T17:17:20.454Z,7.57
2022-11-07T17:19:48.994Z,9.90
2022-11-07T17:22:18.867Z,5.63
2022-11-07T17:24:47.347Z,4.53
2022-11-07T17:27:22.109Z,3.67
2022-11-07T17:29:51.065Z,2.73
2022-11-07T17:32:19.749Z,3.13
2022-11-07T17:34:55.021Z,3.47
2022-11-07T17:37:38.483Z,3.83
2022-11-07T17:40:08.299Z,3.20
2022-11-07T17:42:38.196Z,3.70
2022-11-07T17:45:08.063Z,2.60
2022-11-07T17:47:37.839Z,2.60
2022-11-07T17:50:06.884Z,3.30
2022-11-07T17:52:35.412Z,2.43
2022-11-07T17:55:05.726Z,2.27
2022-11-07T17:57:34.272Z,2.23
2022-11-07T18:00:04.140Z,2.30
2022-11-07T18:02:32.644Z,2.13
2022-11-07T18:05:01.107Z,2.93
2022-11-07T18:07:29.604Z,3.30
2022-11-07T18:09:58.065Z,2.70
2022-11-07T18:12:28.078Z,3.20
2022-11-07T18:14:56.687Z,2.77
2022-11-07T18:17:25.167Z,2.17
2022-11-07T18:19:53.782Z,2.53
2022-11-07T18:22:22.153Z,2.30
2022-11-07T18:24:50.533Z,2.20
2022-11-07T18:27:19.146Z,2.17
2022-11-07T18:29:49.429Z,2.30
2022-11-07T18:32:17.810Z,3.20
2022-11-07T18:34:46.178Z,3.53
2022-11-07T18:37:14.546Z,3.50
2022-11-07T18:39:42.926Z,4.13
2022-11-07T18:42:11.422Z,4.83
2022-11-07T18:44:39.854Z,3.93
2022-11-07T18:47:09.504Z,3.27
2022-11-07T18:49:37.847Z,2.77
2022-11-07T18:52:06.349Z,2.40
2022-11-07T18:54:34.711Z,2.53
2022-11-07T18:57:03.097Z,3.03
2022-11-07T18:59:31.418Z,3.07
2022-11-07T19:02:00.168Z,3.07
2022-11-07T19:04:29.987Z,3.07
2022-11-07T19:06:58.439Z,3.30
2022-11-07T19:09:29.366Z,3.43
2022-11-07T19:11:58.185Z,3.37
2022-11-07T19:14:26.897Z,2.80
2022-11-07T19:16:55.776Z,3.20
2022-11-07T19:19:25.004Z,2.80
2022-11-07T19:21:54.693Z,3.30
2022-11-07T19:24:23.047Z,2.90
2022-11-07T19:26:51.412Z,2.33
2022-11-07T19:29:19.896Z,2.77
2022-11-07T19:31:48.425Z,6.50
2022-11-07T19:34:18.087Z,5.97
2022-11-07T19:36:46.557Z,2.60
2022-11-07T19:39:16.318Z,2.00
2022-11-07T19:41:44.677Z,2.13
2022-11-07T19:44:13.008Z,2.10
2022-11-07T19:46:41.398Z,2.00
2022-11-07T19:49:10.189Z,1.90
2022-11-07T19:51:38.718Z,2.03
2022-11-07T19:54:08.501Z,2.13
2022-11-07T19:56:39.394Z,2.20
2022-11-07T19:59:07.989Z,1.90
2022-11-07T20:01:36.680Z,2.50
2022-11-07T20:04:09.630Z,2.30
2022-11-07T20:06:39.511Z,2.80
2022-11-07T20:09:09.598Z,2.57
2022-11-07T20:11:39.773Z,2.03
2022-11-07T20:14:08.226Z,1.80
2022-11-07T20:16:37.530Z,2.40
2022-11-07T20:19:06.575Z,1.83
2022-11-07T20:21:35.025Z,1.60
2022-11-07T20:24:05.420Z,2.07
2022-11-07T20:26:34.116Z,1.70
2022-11-07T20:29:04.065Z,1.97
2022-11-07T20:31:34.691Z,1.70
2022-11-07T20:34:05.271Z,1.80
2022-11-07T20:36:34.469Z,1.70
2022-11-07T20:39:03.505Z,1.80
2022-11-07T20:41:32.438Z,1.80
2022-11-07T20:44:04.217Z,1.80
2022-11-07T20:46:34.422Z,2.00
2022-11-07T20:49:04.750Z,2.00
2022-11-07T20:51:33.326Z,2.10
2022-11-07T20:54:01.706Z,2.03
2022-11-07T20:56:30.345Z,2.00
2022-11-07T20:58:58.850Z,1.80
2022-11-07T21:01:35.740Z,1.67
2022-11-07T21:04:06.002Z,1.70
2022-11-07T21:06:35.199Z,1.87
2022-11-07T21:09:03.719Z,1.90
2022-11-07T21:11:32.253Z,2.30
2022-11-07T21:14:00.917Z,2.10
2022-11-07T21:16:34.472Z,1.70
2022-11-07T21:19:05.051Z,1.90
2022-11-07T21:21:33.950Z,11.30
2022-11-07T21:24:02.348Z,9.73
2022-11-07T21:26:33.396Z,1.90
2022-11-07T21:29:03.009Z,1.87
2022-11-07T21:31:33.626Z,1.77
2022-11-07T21:34:02.188Z,1.60
2022-11-07T21:36:31.683Z,1.63
2022-11-07T21:39:01.247Z,2.07
2022-11-07T21:41:31.187Z,1.70
2022-11-07T21:44:00.061Z,1.93
2022-11-07T21:46:31.838Z,1.83
2022-11-07T21:49:01.791Z,1.73
2022-11-07T21:51:32.095Z,1.70
2022-11-07T21:54:08.951Z,1.70
2022-11-07T21:56:39.411Z,1.80
2022-11-07T21:59:09.477Z,1.50
2022-11-07T22:01:38.816Z,1.97
2022-11-07T22:04:12.214Z,1.30
2022-11-07T22:06:43.613Z,1.80
2022-11-07T22:09:18.101Z,1.53
2022-11-07T22:11:46.599Z,1.80
2022-11-07T22:14:17.022Z,1.67
2022-11-07T22:16:45.693Z,1.80
2022-11-07T22:19:16.741Z,1.70
2022-11-07T22:21:45.620Z,1.40
2022-11-07T22:24:13.961Z,1.70
2022-11-07T22:26:42.386Z,1.93
2022-11-07T22:29:10.745Z,1.90
2022-11-07T22:31:39.090Z,1.97
2022-11-07T22:34:07.410Z,2.27
2022-11-07T22:36:37.121Z,1.73
2022-11-07T22:39:05.636Z,1.87
2022-11-07T22:41:34.084Z,1.57
2022-11-07T22:44:02.549Z,1.50
2022-11-07T22:46:31.944Z,2.10
2022-11-07T22:49:00.693Z,1.40
2022-11-07T22:51:31.230Z,2.20
2022-11-07T22:54:03.118Z,2.10
2022-11-07T22:56:31.564Z,1.90
2022-11-07T22:59:00.601Z,1.87
2022-11-07T23:01:31.603Z,2.30
2022-11-07T23:04:00.742Z,1.80
2022-11-07T23:06:30.333Z,1.90
2022-11-07T23:09:00.002Z,2.07
2022-11-07T23:11:48.422Z,1.80
2022-11-07T23:14:19.358Z,2.03
2022-11-07T23:16:49.635Z,1.87
2022-11-07T23:19:19.959Z,1.60
2022-11-07T23:21:48.946Z,2.00
2022-11-07T23:24:18.021Z,1.90
2022-11-07T23:26:48.128Z,1.90
2022-11-07T23:29:18.669Z,2.07
2022-11-07T23:31:48.709Z,1.93
2022-11-07T23:34:17.659Z,2.00
2022-11-07T23:36:46.311Z,2.03
2022-11-07T23:39:16.678Z,2.20
2022-11-07T23:41:45.486Z,2.27
2022-11-07T23:44:16.301Z,1.90
2022-11-07T23:47:03.325Z,2.07
2022-11-07T23:49:49.280Z,1.97
2022-11-07T23:52:18.482Z,1.90
2022-11-07T23:55:04.348Z,1.73
2022-11-07T23:57:55.119Z,1.87
